Time;durP1;ratioP1;P1;durP2;ratioP2;P2;SDS_P1;SDS_P2;PMS_P1;PMS_P2;Temp;Humidity;BMP_temperature;BMP_pressure;BME280_temperature;BME280_humidity;BME280_pressure;Samples;Min_cycle;Max_cycle;Signal;HPM_P1;HPM_P2
2024/01/01 00:00:15;;;;;;;;;;;;;;;;;;5074108;28;1888;-60
2024/01/01 00:02:41;;;;;;;;;;;;;;;;;;5074809;28;1623;-59
2024/01/01 00:05:08;;;;;;;;;;;;;;;;;;5075095;28;1035;-59
2024/01/01 00:07:33;;;;;;;;;;;;;;;;;;5074751;28;1199;-59
2024/01/01 00:09:58;;;;;;;;;;;;;;;;;;5074602;28;837;-58
2024/01/01 00:12:24;;;;;;;;;;;;;;;;;;5074674;28;923;-59
2024/01/01 00:14:49;;;;;;;;;;;;;;;;;;5074697;28;1094;-58
2024/01/01 00:17:14;;;;;;;;;;;;;;;;;;5074290;28;881;-59
2024/01/01 00:19:40;;;;;;;;;;;;;;;;;;5074165;28;1913;-59
2024/01/01 00:22:05;;;;;;;;;;;;;;;;;;5083382;28;1211;-59
2024/01/01 00:24:30;;;;;;;;;;;;;;;;;;5093476;28;938;-59
2024/01/01 00:26:56;;;;;;;;;;;;;;;;;;5092928;28;871;-58
2024/01/01 00:29:21;;;;;;;;;;;;;;;;;;5093223;28;810;-59
2024/01/01 00:31:46;;;;;;;;;;;;;;;;;;5092665;28;845;-57
2024/01/01 00:34:11;;;;;;;;;;;;;;;;;;5092388;28;979;-59
2024/01/01 00:36:37;;;;;;;;;;;;;;;;;;5093041;28;936;-58
2024/01/01 00:39:02;;;;;;;;;;;;;;;;;;5093601;28;1910;-58
2024/01/01 00:41:27;;;;;;;;;;;;;;;;;;5094592;28;902;-60
2024/01/01 00:43:53;;;;;;;;;;;;;;;;;;5093013;28;880;-58
2024/01/01 00:46:18;;;;;;;;;;;;;;;;;;5094477;28;1064;-60
2024/01/01 00:48:43;;;;;;;;;;;;;;;;;;5093034;28;974;-57
2024/01/01 00:51:09;;;;;;;;;;;;;;;;;;5094398;28;863;-60
2024/01/01 00:53:34;;;;;;;;;;;;;;;;;;5094493;28;892;-58
2024/01/01 00:55:59;;;;;;;;;;;;;;;;;;5094256;28;845;-58
2024/01/01 00:58:25;;;;;;;;;;;;;;;;;;5094200;28;837;-58
2024/01/01 01:00:50;;;;;;;;;;;;;;;;;;5094456;28;1866;-58
2024/01/01 01:03:15;;;;;;;;;;;;;;;;;;5094672;28;816;-59
2024/01/01 01:05:40;;;;;;;;;;;;;;;;;;5094110;28;991;-59
2024/01/01 01:08:06;;;;;;;;;;;;;;;;;;5094700;28;1101;-59
2024/01/01 01:10:31;;;;;;;;;;;;;;;;;;5093312;28;871;-58
2024/01/01 01:12:56;;;;;;;;;;;;;;;;;;5094066;28;1688;-59
2024/01/01 01:15:24;;;;;;;;;;;;;;;;;;5094144;28;912;-59
2024/01/01 01:17:50;;;;;;;;;;;;;;;;;;5094312;28;912;-59
2024/01/01 01:20:15;;;;;;;;;;;;;;;;;;5093122;28;1880;-59
2024/01/01 01:22:40;;;;;;;;;;;;;;;;;;5094610;28;899;-59
2024/01/01 01:25:05;;;;;;;;;;;;;;;;;;5093620;28;1213;-58
2024/01/01 01:27:31;;;;;;;;;;;;;;;;;;5094561;28;991;-58
2024/01/01 01:29:56;;;;;;;;;;;;;;;;;;5097967;28;990;-58
2024/01/01 01:32:21;;;;;;;;;;;;;;;;;;5097832;28;967;-59
2024/01/01 01:34:46;;;;;;;;;;;;;;;;;;5098356;28;919;-59
2024/01/01 01:37:12;;;;;;;;;;;;;;;;;;5098175;28;844;-58
2024/01/01 01:39:37;;;;;;;;;;;;;;;;;;5097800;28;1905;-58
2024/01/01 01:42:02;;;;;;;;;;;;;;;;;;5097342;28;936;-58
2024/01/01 01:44:29;;;;;;;;;;;;;;;;;;5097366;28;1042;-57
2024/01/01 01:46:54;;;;;;;;;;;;;;;;;;5097781;28;907;-58
2024/01/01 01:49:20;;;;;;;;;;;;;;;;;;5097572;28;892;-58
2024/01/01 01:51:48;;;;;;;;;;;;;;;;;;5097232;28;864;-58
2024/01/01 01:54:13;;;;;;;;;;;;;;;;;;5097644;28;957;-59
2024/01/01 01:56:39;;;;;;;;;;;;;;;;;;5098008;28;1081;-59
2024/01/01 01:59:05;;;;;;;;;;;;;;;;;;5096905;28;1985;-59
2024/01/01 02:01:30;;;;;;;;;;;;;;;;;;5097645;28;618;-59
2024/01/01 02:03:56;;;;;;;;;;;;;;;;;;5097336;28;808;-58
2024/01/01 02:06:21;;;;;;;;;;;;;;;;;;5097339;28;855;-59
2024/01/01 02:08:47;;;;;;;;;;;;;;;;;;5097079;28;931;-58
2024/01/01 02:11:12;;;;;;;;;;;;;;;;;;5097390;28;863;-57
2024/01/01 02:13:37;;;;;;;;;;;;;;;;;;5097391;28;888;-58
2024/01/01 02:16:02;;;;;;;;;;;;;;;;;;5097426;28;825;-59
2024/01/01 02:18:28;;;;;;;;;;;;;;;;;;5097433;28;1789;-58
2024/01/01 02:20:54;;;;;;;;;;;;;;;;;;5095417;28;1897;-58
2024/01/01 02:23:19;;;;;;;;;;;;;;;;;;5096985;28;820;-58
2024/01/01 02:25:45;;;;;;;;;;;;;;;;;;5096753;28;998;-58
2024/01/01 02:28:10;;;;;;;;;;;;;;;;;;5095448;28;1010;-59
2024/01/01 02:30:36;;;;;;;;;;;;;;;;;;5097350;28;891;-59
2024/01/01 02:33:08;;;;;;;;;;;;;;;;;;5097305;28;828;-61
2024/01/01 02:35:33;;;;;;;;;;;;;;;;;;5096723;28;876;-59
2024/01/01 02:37:59;;;;;;;;;;;;;;;;;;5096672;28;903;-60
2024/01/01 02:40:24;;;;;;;;;;;;;;;;;;5096240;28;1910;-59
2024/01/01 02:42:50;;;;;;;;;;;;;;;;;;5096866;28;900;-58
2024/01/01 02:45:15;;;;;;;;;;;;;;;;;;5096814;28;936;-58
2024/01/01 02:47:40;;;;;;;;;;;;;;;;;;5096841;28;875;-58
2024/01/01 02:50:06;;;;;;;;;;;;;;;;;;5097032;28;907;-58
2024/01/01 02:52:31;;;;;;;;;;;;;;;;;;5096654;28;861;-58
2024/01/01 02:54:56;;;;;;;;;;;;;;;;;;5097220;28;962;-58
2024/01/01 02:57:25;;;;;;;;;;;;;;;;;;5096466;28;915;-58
2024/01/01 02:59:50;;;;;;;;;;;;;;;;;;5095967;28;1945;-59
2024/01/01 03:02:16;;;;;;;;;;;;;;;;;;5096069;28;900;-57
2024/01/01 03:04:42;;;;;;;;;;;;;;;;;;5096388;28;931;-58
2024/01/01 03:07:07;;;;;;;;;;;;;;;;;;5097286;28;911;-58
2024/01/01 03:09:33;;;;;;;;;;;;;;;;;;5096699;28;888;-58
2024/01/01 03:11:58;;;;;;;;;;;;;;;;;;5096152;28;903;-58
2024/01/01 03:14:23;;;;;;;;;;;;;;;;;;5096304;28;962;-58
2024/01/01 03:16:49;;;;;;;;;;;;;;;;;;5096151;28;856;-58
2024/01/01 03:19:14;;;;;;;;;;;;;;;;;;5094644;28;1965;-58
2024/01/01 03:21:40;;;;;;;;;;;;;;;;;;5095850;28;892;-58
2024/01/01 03:24:05;;;;;;;;;;;;;;;;;;5096146;28;832;-58
2024/01/01 03:26:30;;;;;;;;;;;;;;;;;;5095473;28;917;-58
2024/01/01 03:28:56;;;;;;;;;;;;;;;;;;5095956;28;955;-58
2024/01/01 03:31:21;;;;;;;;;;;;;;;;;;5095839;28;883;-58
2024/01/01 03:33:46;;;;;;;;;;;;;;;;;;5095500;28;872;-57
2024/01/01 03:36:12;;;;;;;;;;;;;;;;;;5094852;28;920;-57
2024/01/01 03:38:37;;;;;;;;;;;;;;;;;;5095327;28;876;-57
2024/01/01 03:41:03;;;;;;;;;;;;;;;;;;5095489;28;1909;-58
2024/01/01 03:43:28;;;;;;;;;;;;;;;;;;5095177;28;805;-58
2024/01/01 03:45:54;;;;;;;;;;;;;;;;;;5094946;28;1097;-57
2024/01/01 03:48:20;;;;;;;;;;;;;;;;;;5095258;28;868;-57
2024/01/01 03:50:45;;;;;;;;;;;;;;;;;;5094305;28;821;-58
2024/01/01 03:53:10;;;;;;;;;;;;;;;;;;5094873;28;975;-59
2024/01/01 03:55:35;;;;;;;;;;;;;;;;;;5094872;28;984;-57
2024/01/01 03:58:00;;;;;;;;;;;;;;;;;;5094689;28;947;-58
2024/01/01 04:00:26;;;;;;;;;;;;;;;;;;5095024;28;1951;-57
2024/01/01 04:02:52;;;;;;;;;;;;;;;;;;5093410;28;801;-57
2024/01/01 04:05:17;;;;;;;;;;;;;;;;;;5095216;28;955;-57
2024/01/01 04:07:42;;;;;;;;;;;;;;;;;;5095255;28;813;-57
2024/01/01 04:10:08;;;;;;;;;;;;;;;;;;5094975;28;884;-56
2024/01/01 04:12:34;;;;;;;;;;;;;;;;;;5094989;28;836;-57
2024/01/01 04:14:59;;;;;;;;;;;;;;;;;;5095074;28;872;-58
2024/01/01 04:17:24;;;;;;;;;;;;;;;;;;5095116;28;990;-58
2024/01/01 04:19:50;;;;;;;;;;;;;;;;;;5094883;28;1917;-58
2024/01/01 04:22:16;;;;;;;;;;;;;;;;;;5094324;28;1018;-58
2024/01/01 04:24:42;;;;;;;;;;;;;;;;;;5092965;28;820;-58
2024/01/01 04:27:07;;;;;;;;;;;;;;;;;;5092575;28;818;-58
2024/01/01 04:29:33;;;;;;;;;;;;;;;;;;5093211;28;800;-57
2024/01/01 04:31:58;;;;;;;;;;;;;;;;;;5093079;28;824;-57
2024/01/01 04:34:23;;;;;;;;;;;;;;;;;;5093141;28;946;-58
2024/01/01 04:36:49;;;;;;;;;;;;;;;;;;5093480;28;820;-57
2024/01/01 04:39:14;;;;;;;;;;;;;;;;;;5094145;28;1906;-57
2024/01/01 04:41:39;;;;;;;;;;;;;;;;;;5094731;28;844;-58
2024/01/01 04:44:04;;;;;;;;;;;;;;;;;;5093694;28;798;-57
2024/01/01 04:46:30;;;;;;;;;;;;;;;;;;5094790;28;821;-58
2024/01/01 04:48:55;;;;;;;;;;;;;;;;;;5094541;28;820;-58
2024/01/01 04:51:20;;;;;;;;;;;;;;;;;;5094488;28;828;-59
2024/01/01 04:53:46;;;;;;;;;;;;;;;;;;5094595;28;962;-58
2024/01/01 04:56:11;;;;;;;;;;;;;;;;;;5094376;28;1046;-59
2024/01/01 04:58:36;;;;;;;;;;;;;;;;;;5095001;28;880;-57
2024/01/01 05:01:01;;;;;;;;;;;;;;;;;;5092891;28;1977;-57
2024/01/01 05:03:27;;;;;;;;;;;;;;;;;;5100725;28;924;-58
2024/01/01 05:05:52;;;;;;;;;;;;;;;;;;5099716;28;891;-58
2024/01/01 05:08:17;;;;;;;;;;;;;;;;;;5099636;28;892;-59
2024/01/01 05:10:42;;;;;;;;;;;;;;;;;;5099780;28;982;-57
2024/01/01 05:13:08;;;;;;;;;;;;;;;;;;5099562;28;972;-57
2024/01/01 05:15:33;;;;;;;;;;;;;;;;;;5099382;28;880;-57
2024/01/01 05:17:59;;;;;;;;;;;;;;;;;;5098187;28;765;-57
2024/01/01 05:20:25;;;;;;;;;;;;;;;;;;5100489;28;1933;-58
2024/01/01 05:22:50;;;;;;;;;;;;;;;;;;5100533;28;1055;-58
2024/01/01 05:25:16;;;;;;;;;;;;;;;;;;5100427;28;832;-58
2024/01/01 05:27:41;;;;;;;;;;;;;;;;;;5100423;28;1013;-58
2024/01/01 05:30:07;;;;;;;;;;;;;;;;;;5100283;28;929;-58
2024/01/01 05:32:32;;;;;;;;;;;;;;;;;;5100730;28;979;-58
2024/01/01 05:34:58;;;;;;;;;;;;;;;;;;5100297;28;824;-58
2024/01/01 05:37:23;;;;;;;;;;;;;;;;;;5100664;28;911;-58
2024/01/01 05:39:48;;;;;;;;;;;;;;;;;;5100270;28;1913;-57
2024/01/01 05:42:14;;;;;;;;;;;;;;;;;;5100481;28;995;-58
2024/01/01 05:44:39;;;;;;;;;;;;;;;;;;5100862;28;852;-58
2024/01/01 05:47:05;;;;;;;;;;;;;;;;;;5100819;28;833;-58
2024/01/01 05:49:30;;;;;;;;;;;;;;;;;;5099008;28;2199;-57
2024/01/01 05:51:55;;;;;;;;;;;;;;;;;;5100231;28;908;-59
2024/01/01 05:54:20;;;;;;;;;;;;;;;;;;5100411;28;995;-57
2024/01/01 05:56:46;;;;;;;;;;;;;;;;;;5099900;28;1105;-58
2024/01/01 05:59:11;;;;;;;;;;;;;;;;;;5100264;28;1955;-57
2024/01/01 06:01:36;;;;;;;;;;;;;;;;;;5100092;28;880;-59
2024/01/01 06:04:02;;;;;;;;;;;;;;;;;;5100604;28;804;-58
2024/01/01 06:06:27;;;;;;;;;;;;;;;;;;5100358;28;899;-58
2024/01/01 06:08:52;;;;;;;;;;;;;;;;;;5100453;28;916;-58
2024/01/01 06:11:18;;;;;;;;;;;;;;;;;;5100161;28;852;-58
2024/01/01 06:13:44;;;;;;;;;;;;;;;;;;5098435;28;999;-58
2024/01/01 06:16:09;;;;;;;;;;;;;;;;;;5097296;28;943;-58
2024/01/01 06:18:34;;;;;;;;;;;;;;;;;;5097584;28;920;-58
2024/01/01 06:21:00;;;;;;;;;;;;;;;;;;5097009;28;1886;-56
2024/01/01 06:23:25;;;;;;;;;;;;;;;;;;5096876;28;917;-57
2024/01/01 06:25:52;;;;;;;;;;;;;;;;;;5097579;28;927;-59
2024/01/01 06:28:17;;;;;;;;;;;;;;;;;;5096949;28;982;-58
2024/01/01 06:30:43;;;;;;;;;;;;;;;;;;5096637;28;908;-57
2024/01/01 06:33:08;;;;;;;;;;;;;;;;;;5096931;28;903;-58
2024/01/01 06:35:33;;;;;;;;;;;;;;;;;;5096916;28;930;-58
2024/01/01 06:37:59;;;;;;;;;;;;;;;;;;5096838;28;833;-57
2024/01/01 06:40:24;;;;;;;;;;;;;;;;;;5096743;28;1890;-59
2024/01/01 06:42:49;;;;;;;;;;;;;;;;;;5097040;28;986;-58
2024/01/01 06:45:15;;;;;;;;;;;;;;;;;;5096960;28;987;-58
2024/01/01 06:47:40;;;;;;;;;;;;;;;;;;5096699;28;1197;-58
2024/01/01 06:50:06;;;;;;;;;;;;;;;;;;5096780;28;808;-57
2024/01/01 06:52:31;;;;;;;;;;;;;;;;;;5096634;28;1064;-57
2024/01/01 06:54:56;;;;;;;;;;;;;;;;;;5096546;28;1077;-57
2024/01/01 06:57:21;;;;;;;;;;;;;;;;;;5096050;28;931;-59
2024/01/01 06:59:47;;;;;;;;;;;;;;;;;;5096306;28;1955;-57
2024/01/01 07:02:12;;;;;;;;;;;;;;;;;;5095201;28;867;-58
2024/01/01 07:04:37;;;;;;;;;;;;;;;;;;5095656;28;789;-59
2024/01/01 07:07:03;;;;;;;;;;;;;;;;;;5094035;28;796;-59
2024/01/01 07:09:28;;;;;;;;;;;;;;;;;;5093848;28;872;-58
2024/01/01 07:11:55;;;;;;;;;;;;;;;;;;5093703;28;887;-58
2024/01/01 07:14:20;;;;;;;;;;;;;;;;;;5092747;28;864;-58
2024/01/01 07:16:46;;;;;;;;;;;;;;;;;;5093860;28;852;-59
2024/01/01 07:19:11;;;;;;;;;;;;;;;;;;5093682;28;1975;-58
2024/01/01 07:21:36;;;;;;;;;;;;;;;;;;5095717;28;899;-58
2024/01/01 07:24:01;;;;;;;;;;;;;;;;;;5095856;28;1002;-58
2024/01/01 07:26:27;;;;;;;;;;;;;;;;;;5093760;28;883;-58
2024/01/01 07:28:52;;;;;;;;;;;;;;;;;;5095630;28;820;-57
2024/01/01 07:31:17;;;;;;;;;;;;;;;;;;5095550;28;979;-58
2024/01/01 07:33:43;;;;;;;;;;;;;;;;;;5095387;28;892;-57
2024/01/01 07:36:09;;;;;;;;;;;;;;;;;;5095453;28;880;-58
2024/01/01 07:38:35;;;;;;;;;;;;;;;;;;5094299;28;965;-58
2024/01/01 07:41:00;;;;;;;;;;;;;;;;;;5095030;28;1898;-58
2024/01/01 07:43:26;;;;;;;;;;;;;;;;;;5095426;28;861;-58
2024/01/01 07:45:51;;;;;;;;;;;;;;;;;;5095829;28;947;-58
2024/01/01 07:48:17;;;;;;;;;;;;;;;;;;5095837;28;1105;-59
2024/01/01 07:50:42;;;;;;;;;;;;;;;;;;5095383;28;1016;-58
2024/01/01 07:53:07;;;;;;;;;;;;;;;;;;5095387;28;958;-58
2024/01/01 07:55:32;;;;;;;;;;;;;;;;;;5095084;28;966;-58
2024/01/01 07:57:58;;;;;;;;;;;;;;;;;;5095217;28;821;-58
2024/01/01 08:00:24;;;;;;;;;;;;;;;;;;5095319;28;1902;-57
2024/01/01 08:02:49;;;;;;;;;;;;;;;;;;5094313;28;895;-58
2024/01/01 08:05:15;;;;;;;;;;;;;;;;;;5095344;28;891;-58
2024/01/01 08:07:47;;;;;;;;;;;;;;;;;;5093679;28;845;-58
2024/01/01 08:10:12;;;;;;;;;;;;;;;;;;5093179;28;964;-58
2024/01/01 08:12:38;;;;;;;;;;;;;;;;;;5091998;28;872;-58
2024/01/01 08:15:03;;;;;;;;;;;;;;;;;;5091659;28;824;-58
2024/01/01 08:17:28;;;;;;;;;;;;;;;;;;5093436;28;1046;-58
2024/01/01 08:19:54;;;;;;;;;;;;;;;;;;5092898;28;1978;-58
2024/01/01 08:22:19;;;;;;;;;;;;;;;;;;5094409;28;875;-57
2024/01/01 08:24:44;;;;;;;;;;;;;;;;;;5094944;28;935;-57
2024/01/01 08:27:09;;;;;;;;;;;;;;;;;;5094591;28;1002;-57
2024/01/01 08:29:35;;;;;;;;;;;;;;;;;;5094791;28;966;-57
2024/01/01 08:32:00;;;;;;;;;;;;;;;;;;5094259;28;975;-57
2024/01/01 08:34:25;;;;;;;;;;;;;;;;;;5094165;28;908;-58
2024/01/01 08:36:51;;;;;;;;;;;;;;;;;;5093736;28;976;-57
2024/01/01 08:39:17;;;;;;;;;;;;;;;;;;5093822;28;1964;-57
2024/01/01 08:41:43;;;;;;;;;;;;;;;;;;5094296;28;999;-58
2024/01/01 08:44:08;;;;;;;;;;;;;;;;;;5093622;28;864;-57
2024/01/01 08:46:34;;;;;;;;;;;;;;;;;;5094659;28;863;-58
2024/01/01 08:48:59;;;;;;;;;;;;;;;;;;5093985;28;832;-56
2024/01/01 08:51:24;;;;;;;;;;;;;;;;;;5094271;28;887;-57
2024/01/01 08:53:49;;;;;;;;;;;;;;;;;;5094106;28;880;-58
2024/01/01 08:56:15;;;;;;;;;;;;;;;;;;5094520;28;967;-58
2024/01/01 08:58:40;;;;;;;;;;;;;;;;;;5093714;28;982;-56
2024/01/01 09:01:05;;;;;;;;;;;;;;;;;;5092839;28;2010;-58
2024/01/01 09:03:31;;;;;;;;;;;;;;;;;;5093819;28;963;-57
2024/01/01 09:05:57;;;;;;;;;;;;;;;;;;5093415;28;927;-58
2024/01/01 09:08:23;;;;;;;;;;;;;;;;;;5091957;28;956;-57
2024/01/01 09:10:48;;;;;;;;;;;;;;;;;;5092253;28;911;-57
2024/01/01 09:13:14;;;;;;;;;;;;;;;;;;5092330;28;848;-57
2024/01/01 09:15:39;;;;;;;;;;;;;;;;;;5092218;28;872;-58
2024/01/01 09:18:04;;;;;;;;;;;;;;;;;;5092972;28;904;-58
2024/01/01 09:20:30;;;;;;;;;;;;;;;;;;5091936;28;1898;-58
2024/01/01 09:22:55;;;;;;;;;;;;;;;;;;5091808;28;868;-58
2024/01/01 09:25:21;;;;;;;;;;;;;;;;;;5093948;28;894;-57
2024/01/01 09:27:47;;;;;;;;;;;;;;;;;;5093702;28;813;-59
2024/01/01 09:30:12;;;;;;;;;;;;;;;;;;5094083;28;986;-58
2024/01/01 09:32:38;;;;;;;;;;;;;;;;;;5093970;28;908;-58
2024/01/01 09:35:03;;;;;;;;;;;;;;;;;;5093779;28;860;-57
2024/01/01 09:37:29;;;;;;;;;;;;;;;;;;5092565;28;1747;-58
2024/01/01 09:39:55;;;;;;;;;;;;;;;;;;5092374;28;1914;-56
2024/01/01 09:42:20;;;;;;;;;;;;;;;;;;5084236;28;1163;-58
2024/01/01 09:44:49;;;;;;;;;;;;;;;;;;5070910;28;1182;-58
2024/01/01 09:47:15;;;;;;;;;;;;;;;;;;5085146;28;1128;-56
2024/01/01 09:49:40;;;;;;;;;;;;;;;;;;5077232;28;1167;-57
2024/01/01 09:52:05;;;;;;;;;;;;;;;;;;5084649;28;1152;-57
2024/01/01 09:54:33;;;;;;;;;;;;;;;;;;5082422;28;1663;-59
2024/01/01 09:56:58;;;;;;;;;;;;;;;;;;5076001;28;1171;-57
2024/01/01 09:59:36;;;;;;;;;;;;;;;;;;5078746;28;1948;-56
2024/01/01 10:02:04;;;;;;;;;;;;;;;;;;5078414;28;871;-58
2024/01/01 10:04:29;;;;;;;;;;;;;;;;;;5078287;28;907;-58
2024/01/01 10:06:54;;;;;;;;;;;;;;;;;;5086323;28;1195;-58
2024/01/01 10:09:20;;;;;;;;;;;;;;;;;;5091106;28;1131;-58
2024/01/01 10:11:45;;;;;;;;;;;;;;;;;;5080678;28;1156;-58
2024/01/01 10:14:11;;;;;;;;;;;;;;;;;;5075825;28;956;-58
2024/01/01 10:16:38;;;;;;;;;;;;;;;;;;5076382;28;892;-61
2024/01/01 10:19:04;;;;;;;;;;;;;;;;;;5076181;28;892;-58
2024/01/01 10:21:30;;;;;;;;;;;;;;;;;;5076126;28;1897;-59
2024/01/01 10:23:56;;;;;;;;;;;;;;;;;;5076796;28;871;-59
2024/01/01 10:26:22;;;;;;;;;;;;;;;;;;5077687;28;813;-59
2024/01/01 10:28:47;;;;;;;;;;;;;;;;;;5077914;28;887;-58
2024/01/01 10:31:13;;;;;;;;;;;;;;;;;;5076586;28;870;-58
2024/01/01 10:33:40;;;;;;;;;;;;;;;;;;5076513;28;895;-59
2024/01/01 10:36:06;;;;;;;;;;;;;;;;;;5077195;28;852;-58
2024/01/01 10:38:31;;;;;;;;;;;;;;;;;;5077074;28;1007;-59
2024/01/01 10:40:58;;;;;;;;;;;;;;;;;;5076627;28;1878;-59
2024/01/01 10:43:27;;;;;;;;;;;;;;;;;;5077509;28;881;-59
2024/01/01 10:46:12;;;;;;;;;;;;;;;;;;5077592;28;873;-61
2024/01/01 10:48:38;;;;;;;;;;;;;;;;;;5076886;28;824;-59
2024/01/01 10:51:28;;;;;;;;;;;;;;;;;;5075585;28;888;-60
2024/01/01 10:54:08;;;;;;;;;;;;;;;;;;5077041;28;983;-58
2024/01/01 10:56:48;;;;;;;;;;;;;;;;;;5076174;28;1311;-58
2024/01/01 10:59:20;;;;;;;;;;;;;;;;;;5075633;28;1965;-58
2024/01/01 11:01:47;;;;;;;;;;;;;;;;;;5076218;28;902;-59
2024/01/01 11:04:12;;;;;;;;;;;;;;;;;;5077292;28;828;-58
2024/01/01 11:06:44;;;;;;;;;;;;;;;;;;5076926;28;881;-58
2024/01/01 11:09:19;;;;;;;;;;;;;;;;;;5084713;28;1218;-59
2024/01/01 11:11:47;;;;;;;;;;;;;;;;;;5086386;28;1147;-61
2024/01/01 11:14:26;;;;;;;;;;;;;;;;;;5087594;28;1214;-57
2024/01/01 11:16:52;;;;;;;;;;;;;;;;;;5081246;28;1147;-60
2024/01/01 11:19:36;;;;;;;;;;;;;;;;;;5085843;28;1893;-58
2024/01/01 11:22:17;;;;;;;;;;;;;;;;;;5094086;28;1052;-58
2024/01/01 11:24:42;;;;;;;;;;;;;;;;;;5095952;28;820;-58
2024/01/01 11:27:24;;;;;;;;;;;;;;;;;;5096605;28;947;-57
2024/01/01 11:29:49;;;;;;;;;;;;;;;;;;5094652;28;907;-58
2024/01/01 11:32:17;;;;;;;;;;;;;;;;;;5096313;28;841;-57
2024/01/01 11:34:42;;;;;;;;;;;;;;;;;;5095693;28;951;-57
2024/01/01 11:37:07;;;;;;;;;;;;;;;;;;5095677;28;829;-57
2024/01/01 11:39:34;;;;;;;;;;;;;;;;;;5095628;28;1889;-58
2024/01/01 11:41:59;;;;;;;;;;;;;;;;;;5094970;28;848;-58
2024/01/01 11:44:25;;;;;;;;;;;;;;;;;;5095744;28;897;-58
2024/01/01 11:46:51;;;;;;;;;;;;;;;;;;5095577;28;852;-58
2024/01/01 11:49:17;;;;;;;;;;;;;;;;;;5095360;28;813;-58
2024/01/01 11:51:57;;;;;;;;;;;;;;;;;;5095370;28;905;-57
2024/01/01 11:54:26;;;;;;;;;;;;;;;;;;5095615;28;1020;-58
2024/01/01 11:56:54;;;;;;;;;;;;;;;;;;5095127;28;945;-58
2024/01/01 11:59:21;;;;;;;;;;;;;;;;;;5095360;28;1910;-57
2024/01/01 12:01:47;;;;;;;;;;;;;;;;;;5094980;28;861;-58
2024/01/01 12:04:12;;;;;;;;;;;;;;;;;;5095072;28;931;-58
2024/01/01 12:06:38;;;;;;;;;;;;;;;;;;5095277;28;891;-58
2024/01/01 12:09:04;;;;;;;;;;;;;;;;;;5092867;28;1202;-58
2024/01/01 12:11:29;;;;;;;;;;;;;;;;;;5082762;28;1147;-59
2024/01/01 12:13:56;;;;;;;;;;;;;;;;;;5083306;28;1116;-57
2024/01/01 12:16:21;;;;;;;;;;;;;;;;;;5083942;28;1175;-58
2024/01/01 12:18:46;;;;;;;;;;;;;;;;;;5068182;28;1155;-58
2024/01/01 12:21:12;;;;;;;;;;;;;;;;;;5071249;28;1902;-59
2024/01/01 12:23:37;;;;;;;;;;;;;;;;;;5089725;28;1221;-58
2024/01/01 12:26:05;;;;;;;;;;;;;;;;;;5073486;28;1051;-58
2024/01/01 12:28:30;;;;;;;;;;;;;;;;;;5094407;28;915;-58
2024/01/01 12:30:59;;;;;;;;;;;;;;;;;;5094686;28;979;-58
2024/01/01 12:33:24;;;;;;;;;;;;;;;;;;5094103;28;1167;-58
2024/01/01 12:35:49;;;;;;;;;;;;;;;;;;5093097;28;966;-58
2024/01/01 12:38:14;;;;;;;;;;;;;;;;;;5092586;28;1034;-57
2024/01/01 12:40:40;;;;;;;;;;;;;;;;;;5092243;28;1959;-58
2024/01/01 12:43:05;;;;;;;;;;;;;;;;;;5092401;28;852;-59
2024/01/01 12:45:30;;;;;;;;;;;;;;;;;;5091697;28;883;-58
2024/01/01 12:47:56;;;;;;;;;;;;;;;;;;5092613;28;837;-58
2024/01/01 12:50:21;;;;;;;;;;;;;;;;;;5092860;28;872;-57
2024/01/01 12:52:46;;;;;;;;;;;;;;;;;;5093992;28;797;-59
2024/01/01 12:55:12;;;;;;;;;;;;;;;;;;5093803;28;1131;-58
2024/01/01 12:57:37;;;;;;;;;;;;;;;;;;5093903;28;911;-57
2024/01/01 13:00:02;;;;;;;;;;;;;;;;;;5094472;28;1967;-58
2024/01/01 13:02:28;;;;;;;;;;;;;;;;;;5094266;28;867;-58
2024/01/01 13:04:53;;;;;;;;;;;;;;;;;;5093994;28;852;-58
2024/01/01 13:07:18;;;;;;;;;;;;;;;;;;5093833;28;978;-58
2024/01/01 13:09:43;;;;;;;;;;;;;;;;;;5093858;28;864;-58
2024/01/01 13:12:09;;;;;;;;;;;;;;;;;;5092519;28;891;-58
2024/01/01 13:14:34;;;;;;;;;;;;;;;;;;5092682;28;841;-58
2024/01/01 13:17:06;;;;;;;;;;;;;;;;;;5092197;28;888;-58
2024/01/01 13:19:34;;;;;;;;;;;;;;;;;;5093516;28;1889;-58
2024/01/01 13:22:00;;;;;;;;;;;;;;;;;;5092781;28;931;-57
2024/01/01 13:24:25;;;;;;;;;;;;;;;;;;5095017;28;939;-58
2024/01/01 13:26:50;;;;;;;;;;;;;;;;;;5097230;28;873;-58
2024/01/01 13:29:16;;;;;;;;;;;;;;;;;;5098571;28;828;-57
2024/01/01 13:31:41;;;;;;;;;;;;;;;;;;5098509;28;971;-57
2024/01/01 13:34:06;;;;;;;;;;;;;;;;;;5098644;28;983;-58
2024/01/01 13:36:32;;;;;;;;;;;;;;;;;;5098256;28;900;-58
2024/01/01 13:38:58;;;;;;;;;;;;;;;;;;5098065;28;851;-58
2024/01/01 13:41:23;;;;;;;;;;;;;;;;;;5098002;28;1976;-58
2024/01/01 13:43:48;;;;;;;;;;;;;;;;;;5097927;28;892;-58
2024/01/01 13:46:14;;;;;;;;;;;;;;;;;;5097727;28;938;-58
2024/01/01 13:48:39;;;;;;;;;;;;;;;;;;5097504;28;871;-58
2024/01/01 13:51:05;;;;;;;;;;;;;;;;;;5097423;28;821;-58
2024/01/01 13:53:30;;;;;;;;;;;;;;;;;;5097353;28;970;-57
2024/01/01 13:55:55;;;;;;;;;;;;;;;;;;5096913;28;840;-58
2024/01/01 13:58:21;;;;;;;;;;;;;;;;;;5096692;28;925;-57
2024/01/01 14:00:47;;;;;;;;;;;;;;;;;;5096832;28;1968;-57
2024/01/01 14:03:15;;;;;;;;;;;;;;;;;;5097353;28;841;-58
2024/01/01 14:05:41;;;;;;;;;;;;;;;;;;5097323;28;911;-58
2024/01/01 14:08:06;;;;;;;;;;;;;;;;;;5097430;28;879;-58
2024/01/01 14:10:32;;;;;;;;;;;;;;;;;;5096107;28;1219;-58
2024/01/01 14:12:57;;;;;;;;;;;;;;;;;;5095771;28;986;-58
2024/01/01 14:15:23;;;;;;;;;;;;;;;;;;5095069;28;1041;-58
2024/01/01 14:17:49;;;;;;;;;;;;;;;;;;5095458;28;836;-58
2024/01/01 14:20:15;;;;;;;;;;;;;;;;;;5095005;28;1898;-58
2024/01/01 14:22:40;;;;;;;;;;;;;;;;;;5095160;28;888;-58
2024/01/01 14:25:07;;;;;;;;;;;;;;;;;;5095044;28;805;-58
2024/01/01 14:27:32;;;;;;;;;;;;;;;;;;5095245;28;888;-58
2024/01/01 14:29:58;;;;;;;;;;;;;;;;;;5096474;28;915;-58
2024/01/01 14:32:23;;;;;;;;;;;;;;;;;;5096923;28;879;-58
2024/01/01 14:34:48;;;;;;;;;;;;;;;;;;5094518;28;876;-58
2024/01/01 14:37:13;;;;;;;;;;;;;;;;;;5096638;28;1082;-57
2024/01/01 14:39:41;;;;;;;;;;;;;;;;;;5096665;28;1902;-57
2024/01/01 14:42:07;;;;;;;;;;;;;;;;;;5096599;28;900;-57
2024/01/01 14:44:33;;;;;;;;;;;;;;;;;;5096420;28;920;-58
2024/01/01 14:46:58;;;;;;;;;;;;;;;;;;5096731;28;820;-58
2024/01/01 14:49:23;;;;;;;;;;;;;;;;;;5096429;28;885;-58
2024/01/01 14:51:51;;;;;;;;;;;;;;;;;;5096724;28;891;-58
2024/01/01 14:54:16;;;;;;;;;;;;;;;;;;5096308;28;874;-58
2024/01/01 14:56:42;;;;;;;;;;;;;;;;;;5096520;28;896;-58
2024/01/01 14:59:07;;;;;;;;;;;;;;;;;;5096596;28;931;-58
2024/01/01 15:01:33;;;;;;;;;;;;;;;;;;5096275;28;1960;-58
2024/01/01 15:03:58;;;;;;;;;;;;;;;;;;5096498;28;840;-58
2024/01/01 15:06:23;;;;;;;;;;;;;;;;;;5096795;28;983;-58
2024/01/01 15:08:49;;;;;;;;;;;;;;;;;;5096539;28;821;-58
2024/01/01 15:11:14;;;;;;;;;;;;;;;;;;5096642;28;907;-58
2024/01/01 15:13:39;;;;;;;;;;;;;;;;;;5095332;28;802;-58
2024/01/01 15:16:05;;;;;;;;;;;;;;;;;;5094610;28;884;-58
2024/01/01 15:18:30;;;;;;;;;;;;;;;;;;5094810;28;817;-58
2024/01/01 15:20:56;;;;;;;;;;;;;;;;;;5094164;28;1894;-58
2024/01/01 15:23:21;;;;;;;;;;;;;;;;;;5094032;28;956;-57
2024/01/01 15:25:49;;;;;;;;;;;;;;;;;;5094260;28;967;-59
2024/01/01 15:28:15;;;;;;;;;;;;;;;;;;5094142;28;906;-58
2024/01/01 15:30:40;;;;;;;;;;;;;;;;;;5095456;28;868;-58
2024/01/01 15:33:06;;;;;;;;;;;;;;;;;;5095375;28;876;-57
2024/01/01 15:35:31;;;;;;;;;;;;;;;;;;5094030;28;900;-57
2024/01/01 15:37:56;;;;;;;;;;;;;;;;;;5095514;28;971;-58
2024/01/01 15:40:21;;;;;;;;;;;;;;;;;;5095473;28;1898;-57
2024/01/01 15:42:52;;;;;;;;;;;;;;;;;;5095232;28;860;-57
2024/01/01 15:45:17;;;;;;;;;;;;;;;;;;5095606;28;911;-58
2024/01/01 15:47:43;;;;;;;;;;;;;;;;;;5094281;28;1021;-58
2024/01/01 15:50:08;;;;;;;;;;;;;;;;;;5095926;28;832;-58
2024/01/01 15:52:33;;;;;;;;;;;;;;;;;;5094740;28;912;-58
2024/01/01 15:54:59;;;;;;;;;;;;;;;;;;5095228;28;933;-57
2024/01/01 15:57:24;;;;;;;;;;;;;;;;;;5095062;28;924;-58
2024/01/01 15:59:49;;;;;;;;;;;;;;;;;;5094825;28;1959;-58
2024/01/01 16:02:14;;;;;;;;;;;;;;;;;;5094781;28;935;-58
2024/01/01 16:04:40;;;;;;;;;;;;;;;;;;5094972;28;875;-58
2024/01/01 16:07:05;;;;;;;;;;;;;;;;;;5095632;28;975;-58
2024/01/01 16:09:31;;;;;;;;;;;;;;;;;;5095076;28;832;-58
2024/01/01 16:11:57;;;;;;;;;;;;;;;;;;5093419;28;1284;-58
2024/01/01 16:14:22;;;;;;;;;;;;;;;;;;5093938;28;1050;-59
2024/01/01 16:16:47;;;;;;;;;;;;;;;;;;5092676;28;974;-58
2024/01/01 16:19:12;;;;;;;;;;;;;;;;;;5092700;28;1054;-58
2024/01/01 16:21:38;;;;;;;;;;;;;;;;;;5092923;28;1914;-58
2024/01/01 16:24:03;;;;;;;;;;;;;;;;;;5092812;28;832;-58
2024/01/01 16:26:28;;;;;;;;;;;;;;;;;;5092610;28;872;-58
2024/01/01 16:28:53;;;;;;;;;;;;;;;;;;5092384;28;913;-58
2024/01/01 16:31:19;;;;;;;;;;;;;;;;;;5094100;28;844;-58
2024/01/01 16:33:45;;;;;;;;;;;;;;;;;;5094333;28;876;-58
2024/01/01 16:36:13;;;;;;;;;;;;;;;;;;5093920;28;1070;-58
2024/01/01 16:38:39;;;;;;;;;;;;;;;;;;5094666;28;1018;-58
2024/01/01 16:41:04;;;;;;;;;;;;;;;;;;5094783;28;1894;-59
2024/01/01 16:43:30;;;;;;;;;;;;;;;;;;5094494;28;903;-58
2024/01/01 16:45:55;;;;;;;;;;;;;;;;;;5094407;28;940;-58
2024/01/01 16:48:20;;;;;;;;;;;;;;;;;;5094771;28;1035;-58
2024/01/01 16:50:47;;;;;;;;;;;;;;;;;;5094922;28;884;-58
2024/01/01 16:53:12;;;;;;;;;;;;;;;;;;5094500;28;810;-58
2024/01/01 16:55:38;;;;;;;;;;;;;;;;;;5094165;28;1053;-58
2024/01/01 16:58:03;;;;;;;;;;;;;;;;;;5094199;28;805;-57
2024/01/01 17:00:28;;;;;;;;;;;;;;;;;;5094155;28;1960;-59
2024/01/01 17:02:53;;;;;;;;;;;;;;;;;;5094745;28;804;-57
2024/01/01 17:05:19;;;;;;;;;;;;;;;;;;5094387;28;892;-58